Time;durP1;ratioP1;P1;durP2;ratioP2;P2;SDS_P1;SDS_P2;PMS_P1;PMS_P2;Temp;Humidity;BMP_temperature;BMP_pressure;BME280_temperature;BME280_humidity;BME280_pressure;Samples;Min_cycle;Max_cycle;Signal;HPM_P1;HPM_P2
2023/07/07 00:00:39;;;;;;;6.68;4.65;;;14.10;99.90;;;;;;5101467;28;20071;-58
2023/07/07 00:03:05;;;;;;;8.70;4.57;;;14.10;99.90;;;;;;5098675;28;20047;-57
2023/07/07 00:05:31;;;;;;;8.27;5.10;;;14.10;99.90;;;;;;5101581;28;20044;-58
2023/07/07 00:07:59;;;;;;;6.80;4.72;;;14.10;99.90;;;;;;5099998;28;20044;-57
2023/07/07 00:10:25;;;;;;;7.75;4.80;;;14.00;99.90;;;;;;5098569;28;20400;-57
2023/07/07 00:12:51;;;;;;;10.13;5.35;;;14.00;99.90;;;;;;5101388;28;20046;-57
2023/07/07 00:15:17;;;;;;;6.35;5.18;;;14.00;99.90;;;;;;5098619;28;20070;-57
2023/07/07 00:17:43;;;;;;;6.72;4.75;;;14.00;99.90;;;;;;5101479;28;20090;-58
2023/07/07 00:20:11;;;;;;;5.53;4.70;;;13.90;99.90;;;;;;5098634;28;20043;-57
2023/07/07 00:22:37;;;;;;;5.57;4.80;;;13.90;99.90;;;;;;5101480;28;20043;-58
2023/07/07 00:25:04;;;;;;;6.10;5.10;;;13.90;99.90;;;;;;5103609;28;20054;-57
2023/07/07 00:27:30;;;;;;;7.22;4.82;;;13.80;99.90;;;;;;5103750;28;20490;-57
2023/07/07 00:29:56;;;;;;;5.78;5.05;;;13.80;99.90;;;;;;5105326;28;20040;-57
2023/07/07 00:32:21;;;;;;;8.73;5.78;;;13.80;99.90;;;;;;5102297;28;20066;-57
2023/07/07 00:34:47;;;;;;;8.75;5.22;;;13.80;99.90;;;;;;5105223;28;20039;-58
2023/07/07 00:37:13;;;;;;;8.23;5.82;;;13.70;99.90;;;;;;5102530;28;20467;-57
2023/07/07 00:39:39;;;;;;;8.95;5.95;;;13.80;99.90;;;;;;5104989;28;20040;-58
2023/07/07 00:42:05;;;;;;;7.95;5.47;;;13.70;99.90;;;;;;5103059;28;20068;-57
2023/07/07 00:45:02;;;;;;;6.47;5.30;;;13.60;99.90;;;;;;5104032;28;20080;-57
2023/07/07 00:47:28;;;;;;;8.90;5.05;;;13.60;99.90;;;;;;5105024;28;20044;-57
2023/07/07 00:49:54;;;;;;;7.70;4.65;;;13.60;99.90;;;;;;5100798;28;20115;-57
2023/07/07 00:52:20;;;;;;;5.55;4.93;;;13.60;99.90;;;;;;5104913;28;20508;-57
2023/07/07 00:54:45;;;;;;;8.45;5.35;;;13.60;99.90;;;;;;5101179;28;20088;-57
2023/07/07 00:57:11;;;;;;;7.15;4.93;;;13.60;99.90;;;;;;5086334;28;20055;-57
2023/07/07 00:59:42;;;;;;;10.13;5.57;;;13.50;99.90;;;;;;5104091;28;20403;-57
2023/07/07 01:02:13;;;;;;;5.90;4.82;;;13.50;99.90;;;;;;5102364;28;20096;-57
2023/07/07 01:04:41;;;;;;;9.77;5.38;;;13.50;99.90;;;;;;5104673;28;20073;-57
2023/07/07 01:07:13;;;;;;;7.00;5.13;;;13.50;99.90;;;;;;5101635;28;20032;-57
2023/07/07 01:09:39;;;;;;;6.13;5.10;;;13.40;99.90;;;;;;5103218;28;20047;-57
2023/07/07 01:12:11;;;;;;;7.05;4.97;;;13.40;99.90;;;;;;5101211;28;20043;-55
2023/07/07 01:14:37;;;;;;;8.05;5.28;;;13.40;99.90;;;;;;5103301;28;20040;-57
2023/07/07 01:17:06;;;;;;;11.55;5.43;;;13.50;99.90;;;;;;5103068;28;20099;-57
2023/07/07 01:19:44;;;;;;;7.53;5.53;;;13.40;99.90;;;;;;5101310;28;20040;-57
2023/07/07 01:22:48;;;;;;;8.50;6.15;;;13.40;99.90;;;;;;5104403;28;20052;-57
2023/07/07 01:25:39;;;;;;;8.55;5.78;;;13.40;99.90;;;;;;5103146;28;20044;-56
2023/07/07 01:28:38;;;;;;;8.13;6.15;;;13.30;99.90;;;;;;5099244;28;20468;-57
2023/07/07 01:31:13;;;;;;;7.63;6.07;;;13.30;99.90;;;;;;5104356;28;20052;-57
2023/07/07 01:33:41;;;;;;;8.60;6.40;;;13.30;99.90;;;;;;5102668;28;20040;-57
2023/07/07 01:36:06;;;;;;;9.40;6.38;;;13.30;99.90;;;;;;5102341;28;20075;-58
2023/07/07 01:38:45;;;;;;;9.25;6.95;;;13.30;99.90;;;;;;5104154;28;20492;-57
2023/07/07 01:41:10;;;;;;;8.68;7.20;;;13.30;99.90;;;;;;5100774;28;20040;-58
2023/07/07 01:43:54;;;;;;;13.20;8.68;;;13.30;99.90;;;;;;5102671;28;20131;-57
2023/07/07 01:46:30;;;;;;;12.05;8.45;;;13.20;99.90;;;;;;5101827;28;20040;-57
2023/07/07 01:49:11;;;;;;;;;;;13.20;99.90;;;;;;5084691;28;20044;-57
2023/07/07 01:52:05;;;;;;;14.02;8.88;;;13.20;99.90;;;;;;5103821;28;20428;-58
2023/07/07 01:54:35;;;;;;;15.35;9.20;;;13.20;99.90;;;;;;5072877;28;20087;-57
2023/07/07 01:57:01;;;;;;;13.75;9.60;;;13.20;99.90;;;;;;5103594;28;20044;-57
2023/07/07 01:59:28;;;;;;;14.77;10.00;;;13.30;99.90;;;;;;5102546;28;20104;-57
2023/07/07 02:01:55;;;;;;;15.32;10.38;;;13.20;99.90;;;;;;5101746;28;20036;-56
2023/07/07 02:04:21;;;;;;;13.52;9.43;;;13.30;99.90;;;;;;5103566;28;20071;-57
2023/07/07 02:06:47;;;;;;;16.27;10.35;;;13.20;99.90;;;;;;5099236;28;20048;-57
2023/07/07 02:09:13;;;;;;;14.60;9.90;;;13.20;99.90;;;;;;5102661;28;20117;-57
2023/07/07 02:11:39;;;;;;;16.35;10.10;;;13.20;99.90;;;;;;5100278;28;20051;-57
2023/07/07 02:14:04;;;;;;;15.57;10.00;;;13.20;99.90;;;;;;5103268;28;20044;-58
2023/07/07 02:16:30;;;;;;;13.90;9.88;;;13.20;99.90;;;;;;5100607;28;20044;-57
2023/07/07 02:18:56;;;;;;;15.00;10.57;;;13.20;99.90;;;;;;5100398;28;20044;-57
2023/07/07 02:21:22;;;;;;;15.98;10.45;;;13.20;99.90;;;;;;5103210;28;20067;-57
2023/07/07 02:23:47;;;;;;;19.70;11.20;;;13.20;99.90;;;;;;5133149;27;20044;-56
2023/07/07 02:26:13;;;;;;;17.15;11.15;;;13.10;99.90;;;;;;5102786;28;20052;-57
2023/07/07 02:28:40;;;;;;;19.00;12.02;;;13.10;99.90;;;;;;5100341;28;20040;-58
2023/07/07 02:31:06;;;;;;;18.35;12.15;;;13.10;99.90;;;;;;5103012;28;20052;-57
2023/07/07 02:33:32;;;;;;;14.48;11.98;;;13.00;99.90;;;;;;5101248;28;20048;-57
2023/07/07 02:36:06;;;;;;;17.58;12.75;;;13.00;99.90;;;;;;5101737;28;20044;-57
2023/07/07 02:38:33;;;;;;;19.25;12.80;;;13.00;99.90;;;;;;5102628;28;20043;-57
2023/07/07 02:40:59;;;;;;;18.30;12.20;;;13.00;99.90;;;;;;5099728;28;20047;-57
2023/07/07 02:43:25;;;;;;;15.23;12.70;;;13.00;99.90;;;;;;5102841;28;20044;-57
2023/07/07 02:45:52;;;;;;;17.17;13.10;;;13.00;99.90;;;;;;5097903;28;20080;-58
2023/07/07 02:48:19;;;;;;;18.30;12.65;;;13.00;99.90;;;;;;5102656;28;20040;-56
2023/07/07 02:50:54;;;;;;;19.50;13.23;;;12.90;99.90;;;;;;5101232;28;20036;-56
2023/07/07 02:53:19;;;;;;;15.93;12.90;;;12.90;99.90;;;;;;5100634;28;20051;-57
2023/07/07 02:55:45;;;;;;;19.55;13.10;;;12.90;99.90;;;;;;5102468;28;20290;-57
2023/07/07 02:58:11;;;;;;;19.38;13.68;;;12.90;99.90;;;;;;5099677;28;20059;-58
2023/07/07 03:00:37;;;;;;;20.00;13.75;;;12.90;99.90;;;;;;5102395;28;20036;-57
2023/07/07 03:03:03;;;;;;;20.50;13.23;;;12.90;99.90;;;;;;5099610;28;20040;-57
2023/07/07 03:05:31;;;;;;;18.70;13.68;;;12.90;99.90;;;;;;5100955;28;20043;-57
2023/07/07 03:07:56;;;;;;;18.52;14.40;;;12.90;99.90;;;;;;5133753;27;20042;-57
2023/07/07 03:10:22;;;;;;;25.48;14.68;;;12.90;99.90;;;;;;5099068;28;20059;-57
2023/07/07 03:12:48;;;;;;;24.08;14.82;;;12.90;99.90;;;;;;5102354;28;20079;-57
2023/07/07 03:15:14;;;;;;;21.58;15.02;;;12.90;99.90;;;;;;5097995;28;20043;-57
2023/07/07 03:17:39;;;;;;;21.63;14.93;;;12.90;99.90;;;;;;5101911;28;20480;-57
2023/07/07 03:20:08;;;;;;;16.27;14.07;;;12.90;99.90;;;;;;5080986;28;20702;-57
2023/07/07 03:22:35;;;;;;;20.50;13.85;;;12.90;99.90;;;;;;5100554;28;20413;-58
2023/07/07 03:25:01;;;;;;;20.25;14.75;;;12.90;99.90;;;;;;5100880;28;20032;-57
2023/07/07 03:27:27;;;;;;;19.15;13.95;;;12.90;99.90;;;;;;5100322;28;20051;-56
2023/07/07 03:29:52;;;;;;;20.13;14.20;;;12.90;99.90;;;;;;5100846;28;20040;-57
2023/07/07 03:32:18;;;;;;;23.70;15.60;;;12.90;99.90;;;;;;5098951;28;20079;-58
2023/07/07 03:34:47;;;;;;;22.13;16.23;;;12.90;99.90;;;;;;5101890;28;20044;-57
2023/07/07 03:37:12;;;;;;;18.35;15.57;;;12.90;99.90;;;;;;5099126;28;20113;-58
2023/07/07 03:39:38;;;;;;;19.70;14.85;;;12.90;99.90;;;;;;5083395;28;20040;-56
2023/07/07 03:42:08;;;;;;;20.65;14.65;;;12.90;99.90;;;;;;5100114;28;20036;-56
2023/07/07 03:44:34;;;;;;;20.92;15.70;;;12.90;99.90;;;;;;5100280;28;20044;-58
2023/07/07 03:47:00;;;;;;;20.38;15.88;;;12.80;99.90;;;;;;5101697;28;20087;-57
2023/07/07 03:49:26;;;;;;;20.95;15.55;;;12.90;99.90;;;;;;5097337;28;20070;-57
2023/07/07 03:51:51;;;;;;;22.35;14.98;;;12.90;99.90;;;;;;5100535;28;20097;-58
2023/07/07 03:54:17;;;;;;;23.20;14.95;;;12.90;99.90;;;;;;5098632;28;20040;-57
2023/07/07 03:56:43;;;;;;;17.95;14.10;;;12.90;99.90;;;;;;5101598;28;20063;-57
2023/07/07 03:59:09;;;;;;;22.50;15.57;;;12.90;99.90;;;;;;5100907;28;20047;-56
2023/07/07 04:01:34;;;;;;;22.52;16.23;;;12.90;99.90;;;;;;5104820;28;20039;-57
2023/07/07 04:04:00;;;;;;;21.02;16.02;;;12.90;99.90;;;;;;5105716;28;20070;-57
2023/07/07 04:06:26;;;;;;;21.88;16.08;;;12.90;99.90;;;;;;5101706;28;20096;-57
2023/07/07 04:08:51;;;;;;;24.90;15.70;;;12.90;99.90;;;;;;5105784;28;20055;-57
2023/07/07 04:11:20;;;;;;;17.38;14.95;;;12.90;99.90;;;;;;5102527;28;20044;-56
2023/07/07 04:13:48;;;;;;;23.77;16.38;;;13.00;99.90;;;;;;5105948;28;20068;-57
2023/07/07 04:16:17;;;;;;;21.75;15.60;;;13.00;99.90;;;;;;5102135;28;20047;-56
2023/07/07 04:18:44;;;;;;;26.10;16.45;;;13.00;99.90;;;;;;5103083;28;20054;-57
2023/07/07 04:21:21;;;;;;;20.40;15.70;;;13.00;99.90;;;;;;5105647;28;20043;-57
2023/07/07 04:23:49;;;;;;;20.02;15.73;;;13.00;99.90;;;;;;5102639;28;20119;-57
2023/07/07 04:26:17;;;;;;;24.98;16.17;;;13.00;99.90;;;;;;5105569;28;20098;-57
2023/07/07 04:28:42;;;;;;;21.40;15.82;;;13.10;99.90;;;;;;5102499;28;20076;-57
2023/07/07 04:31:10;;;;;;;20.60;16.00;;;13.10;99.90;;;;;;5105140;28;20032;-58
2023/07/07 04:33:37;;;;;;;21.58;16.23;;;13.10;99.90;;;;;;5103993;28;20044;-57
2023/07/07 04:36:06;;;;;;;21.10;15.35;;;13.10;99.90;;;;;;5136646;27;20069;-57
2023/07/07 04:38:32;;;;;;;22.73;16.15;;;13.10;99.90;;;;;;5105316;28;20048;-57
2023/07/07 04:41:15;;;;;;;22.52;15.85;;;13.20;99.90;;;;;;5102030;28;20047;-57
2023/07/07 04:43:43;;;;;;;20.23;15.88;;;13.20;99.90;;;;;;5105303;28;20036;-57
2023/07/07 04:46:12;;;;;;;24.00;16.67;;;13.20;99.90;;;;;;5101140;28;20127;-57
2023/07/07 04:48:38;;;;;;;22.80;16.05;;;13.20;99.90;;;;;;5104108;28;20052;-57
2023/07/07 04:51:07;;;;;;;24.15;16.10;;;13.20;99.90;;;;;;5103291;28;20483;-56
2023/07/07 04:53:33;;;;;;;18.63;16.30;;;13.30;99.90;;;;;;5100909;28;20549;-58
2023/07/07 04:56:02;;;;;;;22.20;17.17;;;13.30;99.90;;;;;;5104775;28;20064;-57
2023/07/07 04:58:28;;;;;;;20.60;15.75;;;13.30;99.90;;;;;;5100690;28;20043;-57
2023/07/07 05:01:15;;;;;;;25.13;16.33;;;13.40;99.90;;;;;;5104984;28;20040;-57
2023/07/07 05:03:42;;;;;;;21.92;17.10;;;13.40;99.90;;;;;;5102174;28;20044;-56
2023/07/07 05:06:09;;;;;;;21.52;16.85;;;13.40;99.90;;;;;;5102612;28;20036;-57
2023/07/07 05:08:38;;;;;;;22.08;17.10;;;13.50;99.90;;;;;;5103132;28;20044;-57
2023/07/07 05:11:04;;;;;;;24.38;17.25;;;13.50;99.90;;;;;;5101236;28;20071;-57
2023/07/07 05:13:31;;;;;;;24.33;15.38;;;13.60;99.90;;;;;;5104456;28;20055;-57
2023/07/07 05:16:11;;;;;;;23.52;17.13;;;13.70;99.90;;;;;;5101802;28;20032;-57
2023/07/07 05:18:37;;;;;;;22.33;16.50;;;13.80;99.90;;;;;;5103738;28;20086;-57
2023/07/07 05:21:04;;;;;;;23.23;16.33;;;13.80;99.90;;;;;;5104113;28;20046;-56
2023/07/07 05:23:30;;;;;;;22.40;16.67;;;13.90;99.90;;;;;;5101801;28;20066;-57
2023/07/07 05:25:56;;;;;;;20.73;16.25;;;13.90;99.90;;;;;;5102830;28;20040;-57
2023/07/07 05:28:22;;;;;;;23.92;16.65;;;13.90;99.90;;;;;;5101457;28;20096;-58
2023/07/07 05:30:48;;;;;;;28.13;17.00;;;14.10;99.90;;;;;;5102761;28;20046;-57
2023/07/07 05:33:14;;;;;;;21.40;15.85;;;14.20;99.90;;;;;;5102109;28;20103;-57
2023/07/07 05:35:50;;;;;;;26.20;16.83;;;14.20;99.90;;;;;;5102082;28;20512;-57
2023/07/07 05:38:18;;;;;;;20.88;15.27;;;14.30;99.90;;;;;;5104149;28;20051;-57
2023/07/07 05:40:45;;;;;;;25.48;15.80;;;14.40;99.90;;;;;;5099820;28;20115;-58
2023/07/07 05:43:12;;;;;;;20.98;15.27;;;14.50;99.90;;;;;;5103917;28;20029;-57
2023/07/07 05:45:38;;;;;;;19.50;14.18;;;14.60;99.90;;;;;;5101095;28;20040;-57
2023/07/07 05:48:05;;;;;;;17.30;14.27;;;14.70;99.90;;;;;;5103645;28;20036;-57
2023/07/07 05:50:31;;;;;;;19.08;14.20;;;14.80;99.90;;;;;;5102102;28;20039;-57
2023/07/07 05:52:57;;;;;;;19.25;13.63;;;14.90;99.90;;;;;;5102602;28;20539;-56
2023/07/07 05:55:29;;;;;;;20.83;13.07;;;15.00;99.90;;;;;;5102488;28;20055;-57
2023/07/07 05:57:56;;;;;;;21.33;14.48;;;15.10;99.90;;;;;;5100844;28;20048;-57
2023/07/07 06:00:22;;;;;;;24.95;13.35;;;15.20;99.90;;;;;;5103628;28;20044;-57
2023/07/07 06:02:49;;;;;;;18.08;13.07;;;15.30;99.90;;;;;;5100537;28;20396;-57
2023/07/07 06:05:15;;;;;;;15.93;12.93;;;15.40;99.90;;;;;;5103461;28;20032;-57
2023/07/07 06:07:41;;;;;;;18.40;13.13;;;15.50;99.90;;;;;;5100354;28;20052;-58
2023/07/07 06:10:10;;;;;;;16.55;11.52;;;15.60;99.90;;;;;;5100362;28;20095;-57
2023/07/07 06:12:37;;;;;;;20.88;11.63;;;15.70;99.90;;;;;;5102089;28;20036;-57
2023/07/07 06:15:04;;;;;;;17.42;12.40;;;15.80;99.90;;;;;;5065448;28;20119;-57
2023/07/07 06:17:29;;;;;;;20.60;11.85;;;15.80;99.90;;;;;;5103220;28;20036;-58
2023/07/07 06:19:55;;;;;;;15.10;11.30;;;15.90;99.90;;;;;;5100393;28;20048;-57
2023/07/07 06:22:21;;;;;;;16.90;11.48;;;16.00;99.90;;;;;;5102258;28;20071;-58
2023/07/07 06:24:47;;;;;;;14.48;9.95;;;16.10;99.90;;;;;;5101342;28;20043;-57
2023/07/07 06:27:13;;;;;;;14.48;11.07;;;16.20;99.90;;;;;;5101935;28;20043;-57
2023/07/07 06:29:38;;;;;;;14.32;10.32;;;16.30;99.90;;;;;;5102798;28;20044;-57
2023/07/07 06:32:05;;;;;;;14.20;10.65;;;16.40;99.90;;;;;;5098476;28;20044;-57
2023/07/07 06:34:31;;;;;;;15.18;9.73;;;16.60;99.90;;;;;;5101557;28;20040;-57
2023/07/07 06:36:56;;;;;;;13.52;9.88;;;16.70;99.90;;;;;;5099882;28;20036;-57
2023/07/07 06:39:22;;;;;;;12.35;9.60;;;16.90;99.90;;;;;;5102482;28;20052;-58
2023/07/07 06:41:48;;;;;;;15.48;9.85;;;17.10;99.90;;;;;;5099019;28;20063;-57
2023/07/07 06:44:13;;;;;;;13.93;9.27;;;17.30;99.90;;;;;;5083569;28;20537;-57
2023/07/07 06:46:39;;;;;;;15.00;8.70;;;17.50;99.90;;;;;;5100672;28;20109;-57
2023/07/07 06:49:05;;;;;;;13.65;9.02;;;17.60;99.90;;;;;;5100312;28;20055;-58
2023/07/07 06:51:31;;;;;;;19.15;8.70;;;17.80;99.90;;;;;;5102731;28;20040;-58
2023/07/07 06:53:58;;;;;;;11.52;7.95;;;18.00;99.90;;;;;;5098369;28;20116;-58
2023/07/07 06:56:24;;;;;;;13.15;7.68;;;18.20;99.90;;;;;;5102529;28;20044;-57
2023/07/07 06:58:50;;;;;;;10.77;7.00;;;18.40;99.90;;;;;;5099683;28;20036;-57
2023/07/07 07:01:16;;;;;;;10.20;6.47;;;18.60;99.90;;;;;;5102134;28;20052;-58
2023/07/07 07:03:43;;;;;;;11.15;5.80;;;18.80;99.90;;;;;;5101476;28;20412;-57
2023/07/07 07:06:10;;;;;;;10.32;6.43;;;19.00;99.90;;;;;;5098977;28;20039;-58
2023/07/07 07:08:37;;;;;;;9.45;5.70;;;19.20;99.90;;;;;;5102219;28;20048;-57
2023/07/07 07:11:02;;;;;;;8.90;5.20;;;19.40;99.90;;;;;;5098847;28;20051;-58
2023/07/07 07:13:28;;;;;;;9.82;5.18;;;19.60;99.90;;;;;;5100970;28;20043;-58
2023/07/07 07:15:55;;;;;;;7.82;4.82;;;19.70;99.90;;;;;;5097881;28;20463;-58
2023/07/07 07:18:21;;;;;;;5.78;4.90;;;19.80;99.90;;;;;;5100581;28;20028;-58
2023/07/07 07:20:51;;;;;;;6.60;5.00;;;20.00;99.90;;;;;;5101081;28;20069;-57
2023/07/07 07:23:17;;;;;;;10.73;5.53;;;20.10;99.90;;;;;;5099992;28;20044;-56
2023/07/07 07:25:44;;;;;;;11.73;5.10;;;20.30;99.90;;;;;;5102009;28;20453;-58
2023/07/07 07:28:12;;;;;;;6.03;4.35;;;20.50;99.90;;;;;;5099055;28;20051;-58
2023/07/07 07:30:38;;;;;;;10.15;4.20;;;20.60;99.90;;;;;;5083780;28;20044;-58
2023/07/07 07:33:06;;;;;;;6.75;3.75;;;20.80;99.90;;;;;;5098935;28;20043;-58
2023/07/07 07:35:32;;;;;;;7.13;3.95;;;21.00;99.90;;;;;;5101636;28;20036;-60
2023/07/07 07:37:58;;;;;;;8.27;3.85;;;21.20;99.90;;;;;;5100985;28;20074;-57
2023/07/07 07:40:23;;;;;;;8.85;3.40;;;21.50;99.90;;;;;;5099825;28;20048;-58
2023/07/07 07:42:50;;;;;;;7.70;3.60;;;21.90;99.90;;;;;;5101721;28;20039;-58
2023/07/07 07:45:19;;;;;;;7.05;3.58;;;22.20;99.90;;;;;;5098751;28;20036;-58
2023/07/07 07:47:45;;;;;;;5.65;3.17;;;22.50;99.90;;;;;;5100431;28;20123;-58
2023/07/07 07:50:11;;;;;;;9.00;3.13;;;22.70;99.90;;;;;;5099084;28;20046;-58
2023/07/07 07:52:37;;;;;;;9.63;3.53;;;22.90;99.90;;;;;;5101536;28;20040;-58
2023/07/07 07:55:03;;;;;;;7.82;2.92;;;23.10;99.90;;;;;;5099318;28;20399;-57
2023/07/07 07:57:28;;;;;;;5.78;3.10;;;23.30;99.90;;;;;;5099681;28;20063;-58
2023/07/07 07:59:54;;;;;;;4.68;2.70;;;23.40;99.90;;;;;;5100227;28;20055;-58
2023/07/07 08:02:20;;;;;;;4.60;2.70;;;23.60;99.90;;;;;;5098662;28;20070;-58
2023/07/07 08:04:46;;;;;;;4.70;2.50;;;23.70;99.90;;;;;;5101257;28;20074;-58
2023/07/07 08:07:11;;;;;;;7.90;3.33;;;23.90;99.90;;;;;;5098643;28;20047;-58
2023/07/07 08:09:37;;;;;;;4.32;2.67;;;24.10;99.90;;;;;;5101366;28;20048;-58
2023/07/07 08:12:03;;;;;;;4.93;3.08;;;24.20;99.90;;;;;;5081793;28;20055;-58
2023/07/07 08:14:31;;;;;;;4.93;2.88;;;24.30;99.90;;;;;;5098401;28;20043;-58
2023/07/07 08:17:04;;;;;;;6.28;3.10;;;24.50;99.90;;;;;;5100002;28;20133;-56
2023/07/07 08:19:31;;;;;;;7.97;2.80;;;24.50;99.60;;;;;;5097163;28;20077;-58
2023/07/07 08:21:57;;;;;;;5.78;3.08;;;24.60;98.80;;;;;;5101390;28;20043;-58
2023/07/07 08:24:25;;;;;;;11.23;3.08;;;24.60;98.40;;;;;;5098412;28;20048;-58
2023/07/07 08:26:50;;;;;;;5.00;3.00;;;24.70;96.70;;;;;;5099735;28;20036;-58
2023/07/07 08:29:16;;;;;;;5.88;2.95;;;24.60;97.20;;;;;;5100324;28;20075;-58
2023/07/07 08:31:42;;;;;;;4.53;3.03;;;24.60;97.60;;;;;;5099770;28;20040;-59
2023/07/07 08:34:09;;;;;;;4.32;2.88;;;24.80;96.90;;;;;;5101348;28;20036;-58
2023/07/07 08:36:34;;;;;;;4.45;2.88;;;24.80;95.70;;;;;;5098533;28;20051;-56
2023/07/07 08:39:11;;;;;;;5.63;2.88;;;24.90;95.40;;;;;;5100992;28;20067;-57
2023/07/07 08:41:39;;;;;;;4.40;2.90;;;25.00;94.90;;;;;;5098350;28;20047;-56
2023/07/07 08:44:04;;;;;;;4.15;2.80;;;25.00;94.10;;;;;;5101252;28;20040;-58
2023/07/07 08:46:54;;;;;;;4.40;2.60;;;25.00;94.40;;;;;;5104290;28;20598;-57
2023/07/07 08:49:30;;;;;;;5.55;2.60;;;25.20;94.40;;;;;;5083777;28;20071;-57
2023/07/07 08:52:05;;;;;;;8.18;2.78;;;25.40;94.70;;;;;;5103541;28;20393;-57
2023/07/07 08:54:43;;;;;;;7.25;3.15;;;25.50;93.90;;;;;;5102370;28;20052;-57
2023/07/07 08:57:13;;;;;;;4.60;2.45;;;25.60;92.80;;;;;;5103695;28;20078;-56
2023/07/07 08:59:45;;;;;;;4.68;2.45;;;25.60;92.20;;;;;;5104791;28;20111;-58
2023/07/07 09:03:02;;;;;;;5.07;2.40;;;25.70;91.70;;;;;;5101822;28;20097;-58
2023/07/07 09:05:30;;;;;;;5.07;2.38;;;25.80;92.60;;;;;;5087296;28;20056;-59
2023/07/07 09:08:27;;;;;;;5.75;2.70;;;25.90;91.00;;;;;;5103831;28;20048;-58
2023/07/07 09:10:53;;;;;;;4.18;2.60;;;26.00;90.50;;;;;;5072037;28;20410;-59
2023/07/07 09:13:24;;;;;;;5.20;2.60;;;26.10;90.80;;;;;;5103229;28;20097;-57
2023/07/07 09:16:01;;;;;;;4.35;2.38;;;26.10;88.50;;;;;;5083614;28;20381;-56
2023/07/07 09:18:43;;;;;;;7.40;2.60;;;26.20;89.60;;;;;;5103576;28;20055;-57
2023/07/07 09:21:26;;;;;;;9.25;3.10;;;26.30;89.60;;;;;;5104306;28;20070;-58
2023/07/07 09:23:54;;;;;;;6.32;2.50;;;26.40;88.00;;;;;;5101223;28;20032;-56
2023/07/07 09:26:30;;;;;;;5.30;2.60;;;26.40;85.50;;;;;;5102616;28;20040;-55
2023/07/07 09:28:58;;;;;;;4.85;2.97;;;26.40;84.20;;;;;;5101913;28;20570;-56
2023/07/07 09:31:28;;;;;;;3.53;2.10;;;26.40;85.20;;;;;;5101707;28;20051;-57
2023/07/07 09:33:55;;;;;;;4.40;2.72;;;26.40;84.60;;;;;;5104234;28;20380;-57
2023/07/07 09:36:54;;;;;;;3.95;2.60;;;26.40;82.50;;;;;;5101211;28;20040;-57
2023/07/07 09:39:38;;;;;;;4.85;2.50;;;26.40;84.90;;;;;;5103473;28;20108;-58
2023/07/07 09:42:36;;;;;;;4.90;2.65;;;26.50;85.20;;;;;;5102637;28;20044;-56
2023/07/07 09:45:23;;;;;;;3.97;2.50;;;26.50;83.40;;;;;;5100877;28;20054;-57
2023/07/07 09:48:23;;;;;;;4.82;2.35;;;26.50;81.60;;;;;;5103633;28;20059;-58
2023/07/07 09:51:01;;;;;;;4.60;2.45;;;26.60;82.10;;;;;;5102351;28;20488;-57
2023/07/07 09:53:32;;;;;;;5.50;2.65;;;26.50;84.30;;;;;;5100391;28;20052;-58
2023/07/07 09:55:58;;;;;;;4.55;2.40;;;26.60;83.30;;;;;;5102135;28;20040;-57
2023/07/07 09:58:44;;;;;;;4.93;2.35;;;26.50;83.00;;;;;;5100258;28;20374;-57
2023/07/07 10:01:10;;;;;;;5.65;2.70;;;26.50;81.70;;;;;;5103045;28;20434;-58
2023/07/07 10:03:58;;;;;;;3.72;2.20;;;26.50;82.60;;;;;;5102516;28;20411;-57
2023/07/07 10:06:39;;;;;;;8.70;2.70;;;26.50;82.50;;;;;;5099883;28;20059;-58
2023/07/07 10:09:11;;;;;;;5.38;2.25;;;26.50;82.40;;;;;;5101629;28;20052;-58
2023/07/07 10:11:39;;;;;;;6.72;2.50;;;26.40;79.90;;;;;;5100123;28;20099;-57
2023/07/07 10:14:06;;;;;;;5.70;2.63;;;26.40;80.80;;;;;;5101311;28;20040;-58
2023/07/07 10:16:36;;;;;;;4.18;2.50;;;26.40;81.00;;;;;;5102665;28;20043;-57
2023/07/07 10:19:06;;;;;;;4.50;2.35;;;26.30;81.40;;;;;;5098944;28;20028;-62
2023/07/07 10:21:33;;;;;;;4.63;2.42;;;26.30;81.50;;;;;;5102835;28;20099;-59
2023/07/07 10:23:59;;;;;;;4.43;2.55;;;26.20;79.90;;;;;;5100037;28;20051;-58
2023/07/07 10:26:24;;;;;;;4.03;2.33;;;26.10;79.20;;;;;;5102639;28;20837;-59
2023/07/07 10:28:54;;;;;;;3.65;2.33;;;26.00;79.10;;;;;;5100185;28;20036;-58
2023/07/07 10:31:22;;;;;;;4.07;2.70;;;26.00;80.80;;;;;;5101819;28;20768;-58
2023/07/07 10:33:51;;;;;;;5.43;2.88;;;25.90;82.10;;;;;;5101290;28;20458;-58
2023/07/07 10:36:27;;;;;;;4.60;2.58;;;25.80;80.00;;;;;;5099759;28;20097;-59
2023/07/07 10:38:55;;;;;;;3.53;2.25;;;25.80;80.60;;;;;;5102298;28;20078;-58
2023/07/07 10:41:21;;;;;;;3.22;2.60;;;25.80;81.80;;;;;;5097714;28;20032;-58
2023/07/07 10:43:47;;;;;;;5.72;2.63;;;25.70;83.40;;;;;;5102467;28;20123;-59
2023/07/07 10:46:13;;;;;;;4.40;2.78;;;25.70;80.80;;;;;;5099174;28;20044;-58
2023/07/07 10:48:48;;;;;;;3.88;2.65;;;25.70;79.30;;;;;;5100884;28;20051;-58
2023/07/07 10:51:46;;;;;;;4.53;2.53;;;25.70;77.00;;;;;;5100567;28;20067;-58
2023/07/07 10:54:23;;;;;;;4.72;2.60;;;25.60;77.40;;;;;;5086545;28;20048;-58
2023/07/07 10:56:55;;;;;;;4.20;2.50;;;25.50;76.60;;;;;;5102006;28;20104;-58
2023/07/07 10:59:40;;;;;;;4.78;2.65;;;25.40;77.20;;;;;;5100311;28;20403;-58
2023/07/07 11:02:27;;;;;;;6.28;3.13;;;25.40;78.40;;;;;;5099111;28;20059;-59
2023/07/07 11:05:14;;;;;;;4.55;2.70;;;25.40;78.50;;;;;;5101599;28;20126;-58
2023/07/07 11:08:10;;;;;;;5.03;3.10;;;25.40;77.60;;;;;;5100119;28;20047;-57
2023/07/07 11:10:39;;;;;;;;;;;25.30;78.00;;;;;;5097765;28;20050;-59
2023/07/07 11:13:42;;;;;;;5.47;2.72;;;25.40;78.90;;;;;;5101555;28;19991;-59
2023/07/07 11:16:26;;;;;;;4.65;2.45;;;25.50;78.90;;;;;;5100098;28;20047;-59
2023/07/07 11:19:22;;;;;;;6.88;2.92;;;25.60;77.40;;;;;;5100254;28;20074;-58
2023/07/07 11:22:03;;;;;;;4.15;2.50;;;25.80;78.10;;;;;;5101347;28;20044;-58
2023/07/07 11:24:43;;;;;;;6.50;2.40;;;25.80;78.70;;;;;;5097961;28;20048;-57
2023/07/07 11:27:33;;;;;;;3.95;2.90;;;26.00;77.50;;;;;;5100271;28;20048;-58
2023/07/07 11:30:29;;;;;;;3.75;2.70;;;26.00;74.50;;;;;;5099970;28;20040;-58
2023/07/07 11:32:57;;;;;;;4.93;2.67;;;26.00;74.90;;;;;;5098721;28;20044;-58
2023/07/07 11:35:29;;;;;;;7.88;2.38;;;25.90;74.50;;;;;;5101121;28;20074;-58
2023/07/07 11:38:15;;;;;;;6.20;2.92;;;25.90;74.60;;;;;;5100886;28;20051;-57
2023/07/07 11:41:18;;;;;;;3.15;2.42;;;26.00;74.70;;;;;;5097994;28;20068;-57
2023/07/07 11:44:02;;;;;;;3.47;2.50;;;26.00;73.90;;;;;;5101253;28;20062;-58
2023/07/07 11:46:53;;;;;;;3.92;2.45;;;26.10;75.10;;;;;;5100598;28;20036;-59
2023/07/07 11:49:31;;;;;;;4.53;2.78;;;26.20;74.80;;;;;;5098458;28;20119;-59
2023/07/07 11:52:09;;;;;;;4.80;2.67;;;26.30;75.20;;;;;;5101065;28;20062;-59
2023/07/07 11:55:03;;;;;;;3.42;2.03;;;26.30;74.50;;;;;;5099166;28;20048;-56
2023/07/07 11:57:38;;;;;;;4.47;2.53;;;26.40;74.60;;;;;;5098886;28;20128;-59
2023/07/07 12:00:34;;;;;;;6.28;2.80;;;26.40;74.20;;;;;;5100987;28;20131;-58
2023/07/07 12:03:17;;;;;;;3.17;2.15;;;26.40;73.20;;;;;;5097199;28;20059;-58
2023/07/07 12:05:46;;;;;;;3.45;2.40;;;26.50;72.20;;;;;;5099697;28;20040;-59
2023/07/07 12:08:16;;;;;;;4.25;2.70;;;26.50;72.70;;;;;;5100850;28;20126;-58
2023/07/07 12:10:55;;;;;;;4.40;2.40;;;26.60;71.80;;;;;;5096370;28;20071;-59
2023/07/07 12:13:44;;;;;;;3.75;2.55;;;26.50;71.40;;;;;;5100884;28;20062;-59
2023/07/07 12:16:20;;;;;;;3.50;2.30;;;26.50;70.30;;;;;;5097467;28;20109;-57
2023/07/07 12:19:00;;;;;;;4.07;2.22;;;26.50;70.50;;;;;;5097918;28;20048;-59
2023/07/07 12:21:31;;;;;;;4.35;2.83;;;26.50;70.50;;;;;;5105051;28;20487;-59
2023/07/07 12:23:57;;;;;;;4.13;2.53;;;26.50;70.80;;;;;;5102079;28;20044;-58
2023/07/07 12:26:45;;;;;;;6.35;2.65;;;26.60;70.60;;;;;;5104727;28;20510;-59
2023/07/07 12:29:15;;;;;;;4.80;2.25;;;26.90;71.50;;;;;;5103502;28;20055;-58
2023/07/07 12:31:41;;;;;;;5.43;2.63;;;27.00;71.90;;;;;;5102782;28;20028;-58
2023/07/07 12:34:36;;;;;;;4.82;2.85;;;27.10;71.80;;;;;;5104948;28;20048;-59
2023/07/07 12:37:18;;;;;;;4.45;2.75;;;27.40;72.50;;;;;;5101944;28;20051;-58
2023/07/07 12:40:09;;;;;;;5.88;2.55;;;27.60;71.70;;;;;;5102799;28;20063;-58
2023/07/07 12:42:38;;;;;;;3.60;2.42;;;27.90;70.30;;;;;;5104505;28;20055;-58
2023/07/07 12:45:28;;;;;;;3.67;2.30;;;28.00;68.90;;;;;;5101368;28;20032;-59
2023/07/07 12:48:06;;;;;;;3.78;2.30;;;28.20;70.20;;;;;;5103754;28;20472;-58
2023/07/07 12:50:38;;;;;;;5.93;2.60;;;28.50;68.70;;;;;;5101711;28;20058;-56
2023/07/07 12:53:10;;;;;;;5.55;2.70;;;28.80;69.40;;;;;;5102264;28;20044;-58
2023/07/07 12:56:02;;;;;;;4.65;2.80;;;29.00;67.80;;;;;;5104380;28;20040;-58
2023/07/07 12:58:37;;;;;;;3.00;2.28;;;29.30;67.40;;;;;;5101211;28;20044;-58
2023/07/07 13:01:15;;;;;;;5.32;2.33;;;29.50;67.50;;;;;;5102685;28;20051;-58